sensor_id;sensor_type;location;lat;lon;timestamp;temperature;humidity
2757;DHT22;1386;50.862;6.494;2024-01-30T00:00:37;9.00;99.90
2757;DHT22;1386;50.862;6.494;2024-01-30T00:03:13;8.90;99.90
2757;DHT22;1386;50.862;6.494;2024-01-30T00:05:54;9.00;99.90
2757;DHT22;1386;50.862;6.494;2024-01-30T00:08:37;9.00;99.90
2757;DHT22;1386;50.862;6.494;2024-01-30T00:11:13;9.00;99.90
2757;DHT22;1386;50.862;6.494;2024-01-30T00:13:58;9.00;99.90
2757;DHT22;1386;50.862;6.494;2024-01-30T00:16:27;9.00;99.90
2757;DHT22;1386;50.862;6.494;2024-01-30T00:18:59;9.00;99.90
2757;DHT22;1386;50.862;6.494;2024-01-30T00:21:27;9.00;99.90
2757;DHT22;1386;50.862;6.494;2024-01-30T00:23:54;9.10;99.90
2757;DHT22;1386;50.862;6.494;2024-01-30T00:26:22;9.10;99.90
2757;DHT22;1386;50.862;6.494;2024-01-30T00:28:49;9.10;99.90
2757;DHT22;1386;50.862;6.494;2024-01-30T00:31:49;9.00;99.90
2757;DHT22;1386;50.862;6.494;2024-01-30T08:12:19;8.60;99.90
2757;DHT22;1386;50.862;6.494;2024-01-30T08:15:13;8.60;99.90
2757;DHT22;1386;50.862;6.494;2024-01-30T08:18:14;8.70;99.90
2757;DHT22;1386;50.862;6.494;2024-01-30T08:24:24;8.70;99.90
2757;DHT22;1386;50.862;6.494;2024-01-30T08:30:19;8.70;99.90
2757;DHT22;1386;50.862;6.494;2024-01-30T08:33:05;8.80;99.90
2757;DHT22;1386;50.862;6.494;2024-01-30T08:36:22;8.80;99.90
2757;DHT22;1386;50.862;6.494;2024-01-30T08:39:20;8.80;99.90
2757;DHT22;1386;50.862;6.494;2024-01-30T08:46:03;8.90;99.90
2757;DHT22;1386;50.862;6.494;2024-01-30T08:48:41;8.90;99.90
2757;DHT22;1386;50.862;6.494;2024-01-30T08:51:57;8.90;99.90
2757;DHT22;1386;50.862;6.494;2024-01-30T08:54:59;8.90;99.90
2757;DHT22;1386;50.862;6.494;2024-01-30T08:57:49;8.90;99.90
2757;DHT22;1386;50.862;6.494;2024-01-30T09:00:38;8.90;99.90
2757;DHT22;1386;50.862;6.494;2024-01-30T09:06:39;9.00;99.90
2757;DHT22;1386;50.862;6.494;2024-01-30T09:09:22;9.00;99.90
2757;DHT22;1386;50.862;6.494;2024-01-30T09:11:59;9.10;99.90
2757;DHT22;1386;50.862;6.494;2024-01-30T09:18:06;9.10;99.90
2757;DHT22;1386;50.862;6.494;2024-01-30T09:21:06;9.10;99.90
2757;DHT22;1386;50.862;6.494;2024-01-30T09:27:19;9.10;99.90
2757;DHT22;1386;50.862;6.494;2024-01-30T09:30:06;9.10;99.90
2757;DHT22;1386;50.862;6.494;2024-01-30T09:35:35;9.10;99.90
2757;DHT22;1386;50.862;6.494;2024-01-30T09:38:22;9.20;99.90
2757;DHT22;1386;50.862;6.494;2024-01-30T09:41:13;9.20;99.90
2757;DHT22;1386;50.862;6.494;2024-01-30T09:44:02;9.20;99.90
2757;DHT22;1386;50.862;6.494;2024-01-30T09:47:08;9.20;99.90
2757;DHT22;1386;50.862;6.494;2024-01-30T09:49:45;9.20;99.90
2757;DHT22;1386;50.862;6.494;2024-01-30T09:52:30;9.30;99.90
2757;DHT22;1386;50.862;6.494;2024-01-30T09:55:17;9.30;99.90
2757;DHT22;1386;50.862;6.494;2024-01-30T09:58:20;9.30;99.90
2757;DHT22;1386;50.862;6.494;2024-01-30T10:01:07;9.40;99.90
2757;DHT22;1386;50.862;6.494;2024-01-30T10:03:53;9.40;99.90
2757;DHT22;1386;50.862;6.494;2024-01-30T10:27:39;10.00;99.90
2757;DHT22;1386;50.862;6.494;2024-01-30T10:30:11;10.00;99.90
2757;DHT22;1386;50.862;6.494;2024-01-30T10:32:53;10.10;99.90
2757;DHT22;1386;50.862;6.494;2024-01-30T10:35:37;10.20;99.90
2757;DHT22;1386;50.862;6.494;2024-01-30T10:38:25;10.30;99.90
2757;DHT22;1386;50.862;6.494;2024-01-30T10:41:12;10.40;99.90
2757;DHT22;1386;50.862;6.494;2024-01-30T10:44:02;10.50;99.90
2757;DHT22;1386;50.862;6.494;2024-01-30T10:46:40;10.50;99.90
2757;DHT22;1386;50.862;6.494;2024-01-30T10:49:12;10.50;99.90
2757;DHT22;1386;50.862;6.494;2024-01-30T10:51:50;10.60;99.90
2757;DHT22;1386;50.862;6.494;2024-01-30T10:54:34;10.70;99.90
2757;DHT22;1386;50.862;6.494;2024-01-30T10:57:15;10.70;99.90
2757;DHT22;1386;50.862;6.494;2024-01-30T11:00:04;10.80;99.90
2757;DHT22;1386;50.862;6.494;2024-01-30T11:29:30;11.30;99.90
2757;DHT22;1386;50.862;6.494;2024-01-30T11:32:11;11.30;99.90
2757;DHT22;1386;50.862;6.494;2024-01-30T11:35:12;11.40;99.90
2757;DHT22;1386;50.862;6.494;2024-01-30T11:37:57;11.40;99.90
2757;DHT22;1386;50.862;6.494;2024-01-30T11:40:52;11.30;99.90
2757;DHT22;1386;50.862;6.494;2024-01-30T11:43:53;11.30;99.90
2757;DHT22;1386;50.862;6.494;2024-01-30T11:46:30;11.30;99.90
2757;DHT22;1386;50.862;6.494;2024-01-30T11:49:15;11.30;99.90
2757;DHT22;1386;50.862;6.494;2024-01-30T11:51:58;11.30;99.90
2757;DHT22;1386;50.862;6.494;2024-01-30T11:54:46;11.30;99.90
2757;DHT22;1386;50.862;6.494;2024-01-30T11:57:22;11.30;99.90
2757;DHT22;1386;50.862;6.494;2024-01-30T12:00:14;11.40;99.90
2757;DHT22;1386;50.862;6.494;2024-01-30T12:09:52;11.60;99.90
2757;DHT22;1386;50.862;6.494;2024-01-30T12:12:50;11.60;99.90
2757;DHT22;1386;50.862;6.494;2024-01-30T12:15:28;11.60;99.90
2757;DHT22;1386;50.862;6.494;2024-01-30T12:18:08;11.70;99.90
2757;DHT22;1386;50.862;6.494;2024-01-30T12:20:44;11.80;99.90
2757;DHT22;1386;50.862;6.494;2024-01-30T12:24:15;11.80;99.90
2757;DHT22;1386;50.862;6.494;2024-01-30T12:26:17;11.90;99.90
2757;DHT22;1386;50.862;6.494;2024-01-30T12:28:55;11.80;99.90
2757;DHT22;1386;50.862;6.494;2024-01-30T12:31:41;11.80;99.90
2757;DHT22;1386;50.862;6.494;2024-01-30T12:34:19;11.80;99.90
2757;DHT22;1386;50.862;6.494;2024-01-30T12:36:57;11.80;99.90
2757;DHT22;1386;50.862;6.494;2024-01-30T12:39:43;11.80;99.90
2757;DHT22;1386;50.862;6.494;2024-01-30T12:42:20;11.90;99.90
2757;DHT22;1386;50.862;6.494;2024-01-30T12:45:07;11.90;99.90
2757;DHT22;1386;50.862;6.494;2024-01-30T12:48:02;11.90;99.90
2757;DHT22;1386;50.862;6.494;2024-01-30T12:50:40;11.90;99.90
2757;DHT22;1386;50.862;6.494;2024-01-30T12:53:13;11.90;99.90
2757;DHT22;1386;50.862;6.494;2024-01-30T12:55:44;12.00;99.90
2757;DHT22;1386;50.862;6.494;2024-01-30T12:58:15;11.90;99.90
2757;DHT22;1386;50.862;6.494;2024-01-30T13:00:50;11.90;99.90
2757;DHT22;1386;50.862;6.494;2024-01-30T13:03:30;11.90;99.90
2757;DHT22;1386;50.862;6.494;2024-01-30T13:06:26;11.90;99.90
2757;DHT22;1386;50.862;6.494;2024-01-30T13:08:58;11.80;99.90
2757;DHT22;1386;50.862;6.494;2024-01-30T13:11:32;11.80;99.90
2757;DHT22;1386;50.862;6.494;2024-01-30T13:14:32;11.80;99.90
2757;DHT22;1386;50.862;6.494;2024-01-30T13:17:17;11.80;99.90
2757;DHT22;1386;50.862;6.494;2024-01-30T13:19:49;11.80;99.90
2757;DHT22;1386;50.862;6.494;2024-01-30T22:22:58;8.40;99.90
2757;DHT22;1386;50.862;6.494;2024-01-30T22:25:25;8.40;99.90
2757;DHT22;1386;50.862;6.494;2024-01-30T22:27:52;8.40;99.90
2757;DHT22;1386;50.862;6.494;2024-01-30T22:30:19;8.40;99.90
2757;DHT22;1386;50.862;6.494;2024-01-30T22:32:46;8.40;99.90
2757;DHT22;1386;50.862;6.494;2024-01-30T22:35:13;8.40;99.90
2757;DHT22;1386;50.862;6.494;2024-01-30T22:37:40;8.40;99.90
2757;DHT22;1386;50.862;6.494;2024-01-30T22:40:09;8.40;99.90
2757;DHT22;1386;50.862;6.494;2024-01-30T22:42:36;8.40;99.90
2757;DHT22;1386;50.862;6.494;2024-01-30T22:45:03;8.40;99.90
2757;DHT22;1386;50.862;6.494;2024-01-30T22:47:30;8.40;99.90
2757;DHT22;1386;50.862;6.494;2024-01-30T22:49:57;8.30;99.90
2757;DHT22;1386;50.862;6.494;2024-01-30T22:52:24;8.30;99.90
2757;DHT22;1386;50.862;6.494;2024-01-30T22:54:51;8.30;99.90
2757;DHT22;1386;50.862;6.494;2024-01-30T22:57:19;8.30;99.90
2757;DHT22;1386;50.862;6.494;2024-01-30T22:59:46;8.30;99.90
2757;DHT22;1386;50.862;6.494;2024-01-30T23:02:13;8.30;99.90
2757;DHT22;1386;50.862;6.494;2024-01-30T23:04:40;8.30;99.90
2757;DHT22;1386;50.862;6.494;2024-01-30T23:07:07;8.30;99.90
2757;DHT22;1386;50.862;6.494;2024-01-30T23:09:34;8.20;99.90
2757;DHT22;1386;50.862;6.494;2024-01-30T23:12:01;8.20;99.90
2757;DHT22;1386;50.862;6.494;2024-01-30T23:14:29;8.20;99.90
2757;DHT22;1386;50.862;6.494;2024-01-30T23:16:56;8.20;99.90
2757;DHT22;1386;50.862;6.494;2024-01-30T23:19:22;8.20;99.90
2757;DHT22;1386;50.862;6.494;2024-01-30T23:21:49;8.20;99.90
2757;DHT22;1386;50.862;6.494;2024-01-30T23:24:16;8.20;99.90
2757;DHT22;1386;50.862;6.494;2024-01-30T23:26:43;8.20;99.90
2757;DHT22;1386;50.862;6.494;2024-01-30T23:29:10;8.20;99.90
2757;DHT22;1386;50.862;6.494;2024-01-30T23:31:41;8.20;99.90
2757;DHT22;1386;50.862;6.494;2024-01-30T23:34:09;8.20;99.90
2757;DHT22;1386;50.862;6.494;2024-01-30T23:36:39;8.20;99.90
2757;DHT22;1386;50.862;6.494;2024-01-30T23:39:07;8.20;99.90
2757;DHT22;1386;50.862;6.494;2024-01-30T23:41:34;8.20;99.90
2757;DHT22;1386;50.862;6.494;2024-01-30T23:44:01;8.10;99.90
2757;DHT22;1386;50.862;6.494;2024-01-30T23:46:31;8.10;99.90
2757;DHT22;1386;50.862;6.494;2024-01-30T23:48:59;8.10;99.90
2757;DHT22;1386;50.862;6.494;2024-01-30T23:51:26;8.10;99.90
2757;DHT22;1386;50.862;6.494;2024-01-30T23:53:53;8.10;99.90
2757;DHT22;1386;50.862;6.494;2024-01-30T23:56:20;8.10;99.90
2757;DHT22;1386;50.862;6.494;2024-01-30T23:58:46;8.10;99.90
